Página principal
METAR-TAF:

METAR-TAF

Aeroportos :

Taraz, Cazaquistão

latitude: 42-51-13N, longitude: 071-18-13E, altura: 666 m

Observação actual do tempo

O boletim foi feito há 30 minutos, às 20:30 UTC
Vento 4 kt de sudoeste
Temperatura 3°C
Humidade 100%
Pressão 1015 hPa
Visibilidade: 0100 m
nevoeiro

METAR: UADD 112030Z 22002MPS 0100 R13/0350 FG VV001 03/03 Q1015 R13/290056 NOSIG RMK QBB050 MT OBSC QFE704/0939

Hora: 03:00 (21:00 UTC)

Previsão

O boletim foi feito há 0 minutos, às 21:00 UTC
Previsão válida de 11 às 21 UTC a 12 às 06 UTC
Vento 10 kt de sul
Visibilidade: 1500 m
Nuvens dispersasa uma altura de 1100 ft
Nuvens fragmentadasa uma altura de 3000 ft
neblina
Temporariamente
de 11 às 21 UTC a 12 às 03 UTC
Visibilidade: 0550 m
a uma altura de 200 ft
nevoeiro

TAF: UADD 112100Z 1121/1206 18005MPS 1500 BR SCT011 BKN030 TEMPO 1121/1203 0550 FG VV002

Observações e previsões do tempo de mais de 4000 aeroportos (mensagens METAR e TAF).

As estações disponíveis são os pontos amarelos e vermelhos sobre o mapa.

Mova o rato sobre o mapa para ver o nome da estação.

Depois clique no ponto para visualizar as observações e previsões meteorológicas.

Para alterar o mapa : clique nos botões verdes com uma cruz preta para aumentar o zoom; no botão verde com uma pitada de zoom; ou nas setas verdes para mapas adjacentes.


METAR-TAF: